British Captain — 2IYH2 — position and weather

sailwx.info

Track history (hours):
 
Tides and Currents Weather Stations Pressure Air Temp Water Temp Dewpoint Dewpoint Depression Visibility Wind Speed Wind Dir Waves Ship Positions

British Captain

Last reported at 2018-Jun-19 07:00 UTC. Time now 2018-Jun-19 14:08 UTC.
Position N 55°36' E 005°42'.

Length 183 m; draft 10.2 m.

Type: Ship. MMSI: 235113768.

Wind from 290 at 22 knots

Barometer 1017.4 mb
Air temperature 14.0 ° C
Visibility: greater than 10.8 NM
Dewpoint 12.2 ° C
Water temperature 12.9 ° C

Date/timePositionNaut miles runAvg speedWind from/ knotsBaromVisibWave heightAir tempDewpointWater temp
2018-Jun-19 07:00N 55°36' E 005°42'23612.4 290 / 221017.410.8 14.012.212.9
2018-Jun-18 12:02N 58°12' E 011°06'012.5
2018-Jun-18 12:00N 58°12' E 011°07'5 9.4
2018-Jun-18 11:30N 58°16' E 011°13'5 9.5
2018-Jun-18 11:00N 58°18' E 011°20'4 8.6
2018-Jun-18 10:30N 58°22' E 011°26'0 0.0
2018-Jun-16 22:16N 58°21' E 011°26'0 1.6
2018-Jun-16 22:00N 58°21' E 011°26'3 6.5
2018-Jun-16 21:30N 58°19' E 011°21'712.1
2018-Jun-16 20:58N 58°15' E 011°12'20812.5
2018-Jun-16 04:19N 56°13' E 006°01'612.6
2018-Jun-16 03:50N 56°07' E 005°58'612.6
2018-Jun-16 03:21N 56°01' E 005°56'13512.4
2018-Jun-15 16:28N 53°55' E 004°34'613.8
2018-Jun-15 16:00N 53°50' E 004°27'713.5
2018-Jun-15 15:30N 53°45' E 004°19'713.4
2018-Jun-15 14:58N 53°41' E 004°10'813.4
2018-Jun-15 14:23N 53°36' E 003°59'613.4
2018-Jun-15 13:58N 53°33' E 003°51'613.1
2018-Jun-15 13:30N 53°29' E 003°44'713.5
2018-Jun-15 13:00N 53°22' E 003°40'713.3
2018-Jun-15 12:29N 53°16' E 003°35'913.0
2018-Jun-15 11:47N 53°08' E 003°29'512.4
2018-Jun-15 11:24N 53°03' E 003°26'512.1
2018-Jun-15 11:00N 52°59' E 003°23'611.1
2018-Jun-15 10:28N 52°53' E 003°20'510.4
2018-Jun-15 10:00N 52°49' E 003°16'610.3
2018-Jun-15 09:23N 52°43' E 003°11'411.1
2018-Jun-15 09:00N 52°40' E 003°08'713.2
2018-Jun-15 08:30N 52°34' E 003°03'713.5
2018-Jun-15 07:59N 52°28' E 002°57'612.4
2018-Jun-15 07:29N 52°23' E 002°51'612.3
2018-Jun-15 07:00N 52°17' E 002°47'121163.3
2018-Jun-15 07:00N 52°06' E 002°42'611.5 120 / 41016.2 5.4 15.013.212.3
2018-Jun-15 06:30N 52°12' E 002°42'713.4
2018-Jun-15 06:01N 52°05' E 002°41'714.3
2018-Jun-15 05:30N 51°58' E 002°41'714.2
2018-Jun-15 05:00N 51°51' E 002°41'914.6
2018-Jun-15 04:23N 51°44' E 002°32'614.9
2018-Jun-15 04:00N 51°39' E 002°26'815.1
2018-Jun-15 03:30N 51°34' E 002°18'815.1
2018-Jun-15 03:00N 51°27' E 002°12'715.0
2018-Jun-15 02:30N 51°20' E 002°09'815.2
2018-Jun-15 02:00N 51°13' E 002°03'816.2
2018-Jun-15 01:30N 51°09' E 001°52'816.6
2018-Jun-15 01:00N 51°05' E 001°41'714.1
2018-Jun-15 00:30N 51°00' E 001°32'816.6
2018-Jun-15 00:00N 50°53' E 001°25'816.5
2018-Jun-14 23:30N 50°45' E 001°22'815.1
2018-Jun-14 23:01N 50°39' E 001°15'815.2
2018-Jun-14 22:31N 50°34' E 001°07'815.2
2018-Jun-14 22:00N 50°30' E 000°56'815.7
2018-Jun-14 21:31N 50°27' E 000°44'816.2
2018-Jun-14 21:00N 50°25' E 000°32'816.5
2018-Jun-14 20:30N 50°22' E 000°20'816.4
2018-Jun-14 20:00N 50°20' E 000°08'815.9
2018-Jun-14 19:30N 50°18' W 000°04'815.6
2018-Jun-14 19:00N 50°16' W 000°16'815.3
2018-Jun-14 18:30N 50°14' W 000°28'714.8
2018-Jun-14 18:00N 50°12' W 000°39'714.1
2018-Jun-14 17:30N 50°10' W 000°50'713.3
2018-Jun-14 17:00N 50°09' W 000°60'712.2
2018-Jun-14 16:27N 50°07' W 001°10'511.6
2018-Jun-14 16:00N 50°06' W 001°18'510.9
2018-Jun-14 15:30N 50°04' W 001°26'510.4
2018-Jun-14 15:00N 50°03' W 001°34'5 9.8
2018-Jun-14 14:30N 50°02' W 001°41'5 9.5
2018-Jun-14 13:59N 50°00' W 001°48'5 9.7
2018-Jun-14 13:30N 49°59' W 001°55'5 9.9
2018-Jun-14 13:00N 49°58' W 002°03'510.6
2018-Jun-14 12:30N 49°56' W 002°11'2012.4
2018-Jun-14 10:54N 49°51' W 002°41'512.5
2018-Jun-14 10:30N 49°49' W 002°48'813.0
2018-Jun-14 09:54N 49°46' W 002°59'513.4
2018-Jun-14 09:29N 49°43' W 003°07'6314.5
2018-Jun-14 05:09N 49°13' W 004°31'214.3
2018-Jun-14 05:00N 49°12' W 004°34'2414.1
2018-Jun-14 03:17N 49°00' W 005°06'413.8
2018-Jun-14 03:01N 48°58' W 005°11'813.7
2018-Jun-14 02:27N 48°54' W 005°21'613.4
2018-Jun-14 02:00N 48°51' W 005°29'713.2
2018-Jun-14 01:28N 48°47' W 005°37'712.8
2018-Jun-14 00:54N 48°41' W 005°44'3811.7
2018-Jun-13 21:42N 48°09' W 006°13'211.0
2018-Jun-13 21:30N 48°07' W 006°14'610.5
2018-Jun-13 20:58N 48°02' W 006°18'910.5
2018-Jun-13 20:09N 47°54' W 006°25'2712.5
2018-Jun-13 18:00N 47°30' W 006°42'4113.8 240 / 171020.810.8 14.512.714.4
2018-Jun-13 15:00N 46°54' W 007°12'7510.8 280 / 101022.310.8 16.014.315.1
2018-Jun-13 08:00N 45°54' W 008°18'13511.2 330 / 151023.810.8 15.013.215.2
2018-Jun-12 20:00N 44°00' W 010°00'9210.2 360 / 201024.110.8 15.013.214.8
2018-Jun-12 11:00N 42°42' W 011°06'26311.4 360 / 231023.3 5.4 16.012.414.4
2018-Jun-11 12:00N 38°54' W 014°00'5613.9 360 / 111021.310.8 17.015.315.9
2018-Jun-11 08:00N 38°06' W 014°36'22211.1 340 / 161020.1 5.4 17.015.316.3
2018-Jun-10 12:00N 34°54' W 016°54'4113.7 360 / 161022.110.8 18.016.317.6
2018-Jun-10 09:00N 34°18' W 017°18'17810.5 350 / 161021.910.8 18.016.318.1
2018-Jun-09 16:00N 31°42' W 019°00'36 9.1 360 / 181021.110.8 21.017.819.5
2018-Jun-09 12:00N 31°12' W 019°24'3411.2 320 / 111022.210.8 18.514.219.2
2018-Jun-09 09:00N 30°42' W 019°42'   350 / 211020.810.8 20.016.719.3
Track history (hours):
 
Tides and Currents Weather Stations Pressure Air Temp Water Temp Dewpoint Dewpoint Depression Visibility Wind Speed Wind Dir Waves Ship Positions

British Captain

Last reported at 2018-Jun-19 07:00 UTC. Time now 2018-Jun-19 14:08 UTC.
Position N 55°36' E 005°42'.

Length 183 m; draft 10.2 m.

Type: Ship. MMSI: 235113768.

Wind from 290 at 22 knots

Barometer 1017.4 mb
Air temperature 14.0 ° C
Visibility: greater than 10.8 NM
Dewpoint 12.2 ° C
Water temperature 12.9 ° C

Date/timePositionNaut miles runAvg speedWind from/ knotsBaromVisibWave heightAir tempDewpointWater temp
2018-Jun-19 07:00N 55°36' E 005°42'23612.4 290 / 221017.410.8 14.012.212.9
2018-Jun-18 12:02N 58°12' E 011°06'012.5
2018-Jun-18 12:00N 58°12' E 011°07'5 9.4
2018-Jun-18 11:30N 58°16' E 011°13'5 9.5
2018-Jun-18 11:00N 58°18' E 011°20'4 8.6
2018-Jun-18 10:30N 58°22' E 011°26'0 0.0
2018-Jun-16 22:16N 58°21' E 011°26'0 1.6
2018-Jun-16 22:00N 58°21' E 011°26'3 6.5
2018-Jun-16 21:30N 58°19' E 011°21'712.1
2018-Jun-16 20:58N 58°15' E 011°12'20812.5
2018-Jun-16 04:19N 56°13' E 006°01'612.6
2018-Jun-16 03:50N 56°07' E 005°58'612.6
2018-Jun-16 03:21N 56°01' E 005°56'13512.4
2018-Jun-15 16:28N 53°55' E 004°34'613.8
2018-Jun-15 16:00N 53°50' E 004°27'713.5
2018-Jun-15 15:30N 53°45' E 004°19'713.4
2018-Jun-15 14:58N 53°41' E 004°10'813.4
2018-Jun-15 14:23N 53°36' E 003°59'613.4
2018-Jun-15 13:58N 53°33' E 003°51'613.1
2018-Jun-15 13:30N 53°29' E 003°44'713.5
2018-Jun-15 13:00N 53°22' E 003°40'713.3
2018-Jun-15 12:29N 53°16' E 003°35'913.0
2018-Jun-15 11:47N 53°08' E 003°29'512.4
2018-Jun-15 11:24N 53°03' E 003°26'512.1
2018-Jun-15 11:00N 52°59' E 003°23'611.1
2018-Jun-15 10:28N 52°53' E 003°20'510.4
2018-Jun-15 10:00N 52°49' E 003°16'610.3
2018-Jun-15 09:23N 52°43' E 003°11'411.1
2018-Jun-15 09:00N 52°40' E 003°08'713.2
2018-Jun-15 08:30N 52°34' E 003°03'713.5
2018-Jun-15 07:59N 52°28' E 002°57'612.4
2018-Jun-15 07:29N 52°23' E 002°51'612.3
2018-Jun-15 07:00N 52°17' E 002°47'121163.3
2018-Jun-15 07:00N 52°06' E 002°42'611.5 120 / 41016.2 5.4 15.013.212.3
2018-Jun-15 06:30N 52°12' E 002°42'713.4
2018-Jun-15 06:01N 52°05' E 002°41'714.3
2018-Jun-15 05:30N 51°58' E 002°41'714.2
2018-Jun-15 05:00N 51°51' E 002°41'914.6
2018-Jun-15 04:23N 51°44' E 002°32'614.9
2018-Jun-15 04:00N 51°39' E 002°26'815.1
2018-Jun-15 03:30N 51°34' E 002°18'815.1
2018-Jun-15 03:00N 51°27' E 002°12'715.0
2018-Jun-15 02:30N 51°20' E 002°09'815.2
2018-Jun-15 02:00N 51°13' E 002°03'816.2
2018-Jun-15 01:30N 51°09' E 001°52'816.6
2018-Jun-15 01:00N 51°05' E 001°41'714.1
2018-Jun-15 00:30N 51°00' E 001°32'816.6
2018-Jun-15 00:00N 50°53' E 001°25'816.5
2018-Jun-14 23:30N 50°45' E 001°22'815.1
2018-Jun-14 23:01N 50°39' E 001°15'815.2
2018-Jun-14 22:31N 50°34' E 001°07'815.2
2018-Jun-14 22:00N 50°30' E 000°56'815.7
2018-Jun-14 21:31N 50°27' E 000°44'816.2
2018-Jun-14 21:00N 50°25' E 000°32'816.5
2018-Jun-14 20:30N 50°22' E 000°20'816.4
2018-Jun-14 20:00N 50°20' E 000°08'815.9
2018-Jun-14 19:30N 50°18' W 000°04'815.6
2018-Jun-14 19:00N 50°16' W 000°16'815.3
2018-Jun-14 18:30N 50°14' W 000°28'714.8
2018-Jun-14 18:00N 50°12' W 000°39'714.1
2018-Jun-14 17:30N 50°10' W 000°50'713.3
2018-Jun-14 17:00N 50°09' W 000°60'712.2
2018-Jun-14 16:27N 50°07' W 001°10'511.6
2018-Jun-14 16:00N 50°06' W 001°18'510.9
2018-Jun-14 15:30N 50°04' W 001°26'510.4
2018-Jun-14 15:00N 50°03' W 001°34'5 9.8
2018-Jun-14 14:30N 50°02' W 001°41'5 9.5
2018-Jun-14 13:59N 50°00' W 001°48'5 9.7
2018-Jun-14 13:30N 49°59' W 001°55'5 9.9
2018-Jun-14 13:00N 49°58' W 002°03'510.6
2018-Jun-14 12:30N 49°56' W 002°11'2012.4
2018-Jun-14 10:54N 49°51' W 002°41'512.5
2018-Jun-14 10:30N 49°49' W 002°48'813.0
2018-Jun-14 09:54N 49°46' W 002°59'513.4
2018-Jun-14 09:29N 49°43' W 003°07'6314.5
2018-Jun-14 05:09N 49°13' W 004°31'214.3
2018-Jun-14 05:00N 49°12' W 004°34'2414.1
2018-Jun-14 03:17N 49°00' W 005°06'413.8
2018-Jun-14 03:01N 48°58' W 005°11'813.7
2018-Jun-14 02:27N 48°54' W 005°21'613.4
2018-Jun-14 02:00N 48°51' W 005°29'713.2
2018-Jun-14 01:28N 48°47' W 005°37'712.8
2018-Jun-14 00:54N 48°41' W 005°44'3811.7
2018-Jun-13 21:42N 48°09' W 006°13'211.0
2018-Jun-13 21:30N 48°07' W 006°14'610.5
2018-Jun-13 20:58N 48°02' W 006°18'910.5
2018-Jun-13 20:09N 47°54' W 006°25'2712.5
2018-Jun-13 18:00N 47°30' W 006°42'4113.8 240 / 171020.810.8 14.512.714.4
2018-Jun-13 15:00N 46°54' W 007°12'7510.8 280 / 101022.310.8 16.014.315.1
2018-Jun-13 08:00N 45°54' W 008°18'13511.2 330 / 151023.810.8 15.013.215.2
2018-Jun-12 20:00N 44°00' W 010°00'9210.2 360 / 201024.110.8 15.013.214.8
2018-Jun-12 11:00N 42°42' W 011°06'26311.4 360 / 231023.3 5.4 16.012.414.4
2018-Jun-11 12:00N 38°54' W 014°00'5613.9 360 / 111021.310.8 17.015.315.9
2018-Jun-11 08:00N 38°06' W 014°36'22211.1 340 / 161020.1 5.4 17.015.316.3
2018-Jun-10 12:00N 34°54' W 016°54'4113.7 360 / 161022.110.8 18.016.317.6
2018-Jun-10 09:00N 34°18' W 017°18'17810.5 350 / 161021.910.8 18.016.318.1
2018-Jun-09 16:00N 31°42' W 019°00'36 9.1 360 / 181021.110.8 21.017.819.5
2018-Jun-09 12:00N 31°12' W 019°24'3411.2 320 / 111022.210.8 18.514.219.2
2018-Jun-09 09:00N 30°42' W 019°42'   350 / 211020.810.8 20.016.719.3

Dump ship's entire track history